createdAt,value
2019-01-04T00:02:02.079Z,953.28
2019-01-04T00:04:28.391Z,953.34
2019-01-04T00:06:54.676Z,953.41
2019-01-04T00:09:20.968Z,953.39
2019-01-04T00:11:47.301Z,953.43
2019-01-04T00:14:13.612Z,953.43
2019-01-04T00:16:39.895Z,953.45
2019-01-04T00:19:06.184Z,953.43
2019-01-04T00:21:32.465Z,953.47
2019-01-04T00:23:58.743Z,953.48
2019-01-04T00:26:25.021Z,953.48
2019-01-04T00:28:51.307Z,953.58
2019-01-04T00:31:17.593Z,953.58
2019-01-04T00:33:43.888Z,953.57
2019-01-04T00:36:10.198Z,953.59
2019-01-04T00:38:36.492Z,953.63
2019-01-04T00:41:02.766Z,953.54
2019-01-04T00:43:29.056Z,953.64
2019-01-04T00:45:55.348Z,953.58
2019-01-04T00:48:21.643Z,953.60
2019-01-04T00:50:47.939Z,953.59
2019-01-04T00:53:14.265Z,953.59
2019-01-04T00:55:40.552Z,953.55
2019-01-04T00:58:06.841Z,953.57
2019-01-04T01:00:33.125Z,953.67
2019-01-04T01:02:59.401Z,953.61
2019-01-04T01:05:25.737Z,953.58
2019-01-04T01:07:52.044Z,953.51
2019-01-04T01:10:18.320Z,953.62
2019-01-04T01:12:44.644Z,953.60
2019-01-04T01:15:10.945Z,953.56
2019-01-04T01:17:37.239Z,953.59
2019-01-04T01:20:03.515Z,953.61
2019-01-04T01:22:29.786Z,953.52
2019-01-04T01:24:56.105Z,953.57
2019-01-04T01:27:22.401Z,953.55
2019-01-04T01:29:48.701Z,953.58
2019-01-04T01:32:15.005Z,953.54
2019-01-04T01:34:41.280Z,953.56
2019-01-04T01:37:07.635Z,953.48
2019-01-04T01:39:33.915Z,953.50
2019-01-04T01:42:00.207Z,953.50
2019-01-04T01:44:26.503Z,953.42
2019-01-04T01:46:52.794Z,953.51
2019-01-04T01:49:19.078Z,953.48
2019-01-04T01:51:45.377Z,953.45
2019-01-04T01:54:11.656Z,953.39
2019-01-04T01:56:37.944Z,953.48
2019-01-04T01:59:04.248Z,953.43
2019-01-04T02:01:30.529Z,953.44
2019-01-04T02:03:56.808Z,953.48
2019-01-04T02:06:23.114Z,953.40
2019-01-04T02:08:49.407Z,953.34
2019-01-04T02:11:15.733Z,953.38
2019-01-04T02:13:41.983Z,953.46
2019-01-04T02:16:08.263Z,953.43
2019-01-04T02:18:34.534Z,953.46
2019-01-04T02:21:00.831Z,953.53
2019-01-04T02:23:27.165Z,953.45
2019-01-04T02:25:53.444Z,953.50
2019-01-04T02:28:19.752Z,953.44
2019-01-04T02:30:46.046Z,953.50
2019-01-04T02:33:12.338Z,953.46
2019-01-04T02:35:38.660Z,953.49
2019-01-04T02:38:04.938Z,953.58
2019-01-04T02:40:31.228Z,953.53
2019-01-04T02:42:57.526Z,953.52
2019-01-04T02:45:23.826Z,953.58
2019-01-04T02:47:50.099Z,953.58
2019-01-04T02:50:16.384Z,953.56
2019-01-04T02:52:42.721Z,953.58
2019-01-04T02:55:09.011Z,953.56
2019-01-04T02:57:35.299Z,953.56
2019-01-04T03:00:01.582Z,953.60
2019-01-04T03:02:27.873Z,953.59
2019-01-04T03:04:54.160Z,953.69
2019-01-04T03:07:20.429Z,953.65
2019-01-04T03:09:46.760Z,953.63
2019-01-04T03:12:13.044Z,953.74
2019-01-04T03:14:39.342Z,953.82
2019-01-04T03:17:05.642Z,953.86
2019-01-04T03:19:31.931Z,953.81
2019-01-04T03:21:58.247Z,953.84
2019-01-04T03:24:24.543Z,953.84
2019-01-04T03:26:50.822Z,953.84
2019-01-04T03:29:17.114Z,953.88
2019-01-04T03:31:43.556Z,953.88
2019-01-04T03:34:09.742Z,953.94
2019-01-04T03:36:36.025Z,953.92
2019-01-04T03:39:02.300Z,953.94
2019-01-04T03:41:28.596Z,953.91
2019-01-04T03:43:54.891Z,953.91
2019-01-04T03:46:21.169Z,953.87
2019-01-04T03:48:47.473Z,953.89
2019-01-04T03:51:13.746Z,954.01
2019-01-04T03:53:40.050Z,954.01
2019-01-04T03:56:06.344Z,953.99
2019-01-04T03:58:32.640Z,954.10
2019-01-04T04:00:58.953Z,954.07
2019-01-04T04:03:25.226Z,954.11
2019-01-04T04:05:51.543Z,954.16
2019-01-04T04:08:17.822Z,954.22
2019-01-04T04:10:44.129Z,954.17
2019-01-04T04:13:10.414Z,954.17
2019-01-04T04:15:36.720Z,954.25
2019-01-04T04:18:03.010Z,954.18
2019-01-04T04:20:29.272Z,954.25
2019-01-04T04:22:55.582Z,954.30
2019-01-04T04:25:21.941Z,954.24
2019-01-04T04:27:48.200Z,954.29
2019-01-04T04:30:14.511Z,954.31
2019-01-04T04:32:40.795Z,954.36
2019-01-04T04:35:07.090Z,954.34
2019-01-04T04:37:33.370Z,954.31
2019-01-04T04:39:59.679Z,954.40
2019-01-04T04:42:25.967Z,954.38
2019-01-04T04:44:52.243Z,954.42
2019-01-04T04:47:18.558Z,954.42
2019-01-04T04:49:44.868Z,954.52
2019-01-04T04:52:11.152Z,954.48
2019-01-04T04:54:37.473Z,954.50
2019-01-04T04:57:03.772Z,954.52
2019-01-04T04:59:30.064Z,954.51
2019-01-04T05:01:56.353Z,954.55
2019-01-04T05:04:22.683Z,954.53
2019-01-04T05:06:48.983Z,954.61
2019-01-04T05:09:15.261Z,954.63
2019-01-04T05:11:41.535Z,954.69
2019-01-04T05:14:07.842Z,954.66
2019-01-04T05:16:34.145Z,954.58
2019-01-04T05:19:00.407Z,954.72
2019-01-04T05:21:26.708Z,954.72
2019-01-04T05:23:52.998Z,954.82
2019-01-04T05:26:19.279Z,954.85
2019-01-04T05:28:45.598Z,954.80
2019-01-04T05:31:11.873Z,954.85
2019-01-04T05:33:38.162Z,954.97
2019-01-04T05:36:04.434Z,954.95
2019-01-04T05:38:30.740Z,954.98
2019-01-04T05:40:57.022Z,954.97
2019-01-04T05:43:23.333Z,955.05
2019-01-04T05:45:49.608Z,955.13
2019-01-04T05:48:15.893Z,955.20
2019-01-04T05:50:43.487Z,955.23
2019-01-04T05:53:09.741Z,955.29
2019-01-04T05:55:36.031Z,955.31
2019-01-04T05:58:02.340Z,955.31
2019-01-04T06:00:28.667Z,955.35
2019-01-04T06:02:54.961Z,955.40
2019-01-04T06:05:21.241Z,955.46
2019-01-04T06:07:47.558Z,955.53
2019-01-04T06:10:13.834Z,955.58
2019-01-04T06:12:40.144Z,955.64
2019-01-04T06:15:06.415Z,955.71
2019-01-04T06:17:32.701Z,955.74
2019-01-04T06:19:58.982Z,955.79
2019-01-04T06:22:25.323Z,955.89
2019-01-04T06:24:51.596Z,955.88
2019-01-04T06:27:17.892Z,955.90
2019-01-04T06:29:44.175Z,955.91
2019-01-04T06:32:10.465Z,956.00
2019-01-04T06:34:36.753Z,956.00
2019-01-04T06:37:03.062Z,956.04
2019-01-04T06:39:29.382Z,956.11
2019-01-04T06:41:55.729Z,956.09
2019-01-04T06:44:21.990Z,956.13
2019-01-04T06:46:48.292Z,956.17
2019-01-04T06:49:14.576Z,956.18
2019-01-04T06:51:40.854Z,956.22
2019-01-04T06:54:07.154Z,956.22
2019-01-04T06:56:33.447Z,956.29
2019-01-04T06:58:59.734Z,956.40
2019-01-04T07:01:26.026Z,956.46
2019-01-04T07:03:52.304Z,956.58
2019-01-04T07:06:18.604Z,956.57
2019-01-04T07:08:44.904Z,956.60
2019-01-04T07:11:11.215Z,956.69
2019-01-04T07:13:37.496Z,956.69
2019-01-04T07:16:03.763Z,956.73
2019-01-04T07:18:30.051Z,956.84
2019-01-04T07:20:56.360Z,956.85
2019-01-04T07:23:22.644Z,956.94
2019-01-04T07:25:48.938Z,957.01
2019-01-04T07:28:15.290Z,957.02
2019-01-04T07:30:41.590Z,957.10
2019-01-04T07:33:07.869Z,957.14
2019-01-04T07:35:34.195Z,957.16
2019-01-04T07:38:00.468Z,957.20
2019-01-04T07:40:26.766Z,957.26
2019-01-04T07:42:53.052Z,957.34
2019-01-04T07:45:19.361Z,957.28
2019-01-04T07:47:45.678Z,957.29
2019-01-04T07:50:11.985Z,957.38
2019-01-04T07:52:38.257Z,957.25
2019-01-04T07:55:04.564Z,957.35
2019-01-04T07:57:30.847Z,957.38
2019-01-04T07:59:57.160Z,957.45
2019-01-04T08:02:23.461Z,957.50
2019-01-04T08:04:49.807Z,957.51
2019-01-04T08:07:16.055Z,957.45
2019-01-04T08:09:42.328Z,957.52
2019-01-04T08:12:08.611Z,957.49
2019-01-04T08:14:34.911Z,957.47
2019-01-04T08:17:01.209Z,957.56
2019-01-04T08:19:27.501Z,957.59
2019-01-04T08:21:53.801Z,957.62
2019-01-04T08:24:20.129Z,957.62
2019-01-04T08:26:46.405Z,957.63
2019-01-04T08:29:12.702Z,957.66
2019-01-04T08:31:38.996Z,957.69
2019-01-04T08:34:05.275Z,957.66
2019-01-04T08:36:31.576Z,957.66
2019-01-04T08:38:57.866Z,957.71
2019-01-04T08:41:24.188Z,957.76
2019-01-04T08:43:50.484Z,957.76
2019-01-04T08:46:16.785Z,957.72
2019-01-04T08:48:43.056Z,957.73
2019-01-04T08:51:09.344Z,957.70
2019-01-04T08:53:35.677Z,957.67
2019-01-04T08:56:01.982Z,957.68
2019-01-04T08:58:28.277Z,957.61
2019-01-04T09:00:54.558Z,957.58
2019-01-04T09:03:20.867Z,957.55
2019-01-04T09:05:47.145Z,957.51
2019-01-04T09:08:13.414Z,957.48
2019-01-04T09:10:39.686Z,957.45
2019-01-04T09:13:05.968Z,957.40
2019-01-04T09:15:32.261Z,957.47
2019-01-04T09:17:58.606Z,957.50
2019-01-04T09:20:24.895Z,957.46
2019-01-04T09:22:51.184Z,957.43
2019-01-04T09:25:17.466Z,957.49
2019-01-04T09:27:43.766Z,957.54
2019-01-04T09:30:10.088Z,957.46
2019-01-04T09:32:36.373Z,957.51
2019-01-04T09:35:02.687Z,957.56
2019-01-04T09:37:28.956Z,957.48
2019-01-04T09:39:55.240Z,957.46
2019-01-04T09:42:21.514Z,957.52
2019-01-04T09:44:47.811Z,957.58
2019-01-04T09:47:14.117Z,957.58
2019-01-04T09:49:40.416Z,957.56
2019-01-04T09:52:06.746Z,957.65
2019-01-04T09:54:33.025Z,957.69
2019-01-04T09:56:59.336Z,957.75
2019-01-04T09:59:25.655Z,957.65
2019-01-04T10:01:51.938Z,957.59
2019-01-04T10:04:18.231Z,957.57
2019-01-04T10:06:44.516Z,957.54
2019-01-04T10:09:10.803Z,957.57
2019-01-04T10:11:37.113Z,957.68
2019-01-04T10:14:03.442Z,957.64
2019-01-04T10:16:29.739Z,957.68
2019-01-04T10:18:56.758Z,957.60
2019-01-04T10:21:22.300Z,957.59
2019-01-04T10:23:48.611Z,957.64
2019-01-04T10:26:14.900Z,957.66
2019-01-04T10:28:41.201Z,957.62
2019-01-04T10:31:07.517Z,957.63
2019-01-04T10:33:33.810Z,957.56
2019-01-04T10:36:00.096Z,957.62
2019-01-04T10:38:26.374Z,957.56
2019-01-04T10:40:52.672Z,957.58
2019-01-04T10:43:18.954Z,957.60
2019-01-04T10:45:45.258Z,957.60
2019-01-04T10:48:11.571Z,957.57
2019-01-04T10:50:37.905Z,957.62
2019-01-04T10:53:04.199Z,957.58
2019-01-04T10:55:30.485Z,957.57
2019-01-04T10:57:56.771Z,957.54
2019-01-04T11:00:23.064Z,957.60
2019-01-04T11:02:49.353Z,957.66
2019-01-04T11:05:15.661Z,957.62
2019-01-04T11:07:41.965Z,957.63
2019-01-04T11:10:08.259Z,957.61
2019-01-04T11:12:34.548Z,957.59
2019-01-04T11:15:00.822Z,957.61
2019-01-04T11:17:27.115Z,957.55
2019-01-04T11:19:53.410Z,957.63
2019-01-04T11:22:19.696Z,957.71
2019-01-04T11:24:46.002Z,957.72
2019-01-04T11:27:12.294Z,957.66
2019-01-04T11:29:38.605Z,957.65
2019-01-04T11:32:04.905Z,957.63
2019-01-04T11:34:31.179Z,957.69
2019-01-04T11:36:57.471Z,957.65
2019-01-04T11:39:23.760Z,957.70
2019-01-04T11:41:50.046Z,957.73
2019-01-04T11:44:16.352Z,957.67
2019-01-04T11:46:42.695Z,957.75
2019-01-04T11:49:08.988Z,957.73
2019-01-04T11:51:35.271Z,957.72
2019-01-04T11:54:01.588Z,957.77
2019-01-04T11:56:27.883Z,957.65
2019-01-04T11:58:54.183Z,957.72
2019-01-04T12:01:20.458Z,957.69
2019-01-04T12:03:46.754Z,957.76
2019-01-04T12:06:13.051Z,957.77
2019-01-04T12:08:39.322Z,957.79
2019-01-04T12:11:05.629Z,957.84
2019-01-04T12:13:31.931Z,957.87
2019-01-04T12:15:58.213Z,957.79
2019-01-04T12:18:24.526Z,957.79
2019-01-04T12:20:50.802Z,957.80
2019-01-04T12:23:17.133Z,957.76
2019-01-04T12:25:43.415Z,957.83
2019-01-04T12:28:09.710Z,957.73
2019-01-04T12:30:35.996Z,957.75
2019-01-04T12:33:02.295Z,957.74
2019-01-04T12:35:28.599Z,957.85
2019-01-04T12:37:54.879Z,957.83
2019-01-04T12:40:21.168Z,957.84
2019-01-04T12:42:47.482Z,957.87
2019-01-04T12:45:13.789Z,957.80
2019-01-04T12:47:40.088Z,957.86
2019-01-04T12:50:06.391Z,957.83
2019-01-04T12:52:32.716Z,957.89
2019-01-04T12:54:59.025Z,958.02
2019-01-04T12:57:25.304Z,958.07
2019-01-04T12:59:51.578Z,958.04
2019-01-04T13:02:17.858Z,958.04
2019-01-04T13:04:44.141Z,958.03
2019-01-04T13:07:10.434Z,958.06
2019-01-04T13:09:36.774Z,958.17
2019-01-04T13:12:03.063Z,958.12
2019-01-04T13:14:29.363Z,958.11
2019-01-04T13:16:55.646Z,958.15
2019-01-04T13:19:25.685Z,958.15
2019-01-04T13:21:48.227Z,958.15
2019-01-04T13:24:14.573Z,958.13
2019-01-04T13:26:40.852Z,958.08
2019-01-04T13:29:07.127Z,958.09
2019-01-04T13:31:33.468Z,958.05
2019-01-04T13:33:59.770Z,958.01
2019-01-04T13:36:26.052Z,958.05
2019-01-04T13:38:52.365Z,958.06
2019-01-04T13:41:18.658Z,958.04
2019-01-04T13:43:44.951Z,958.02
2019-01-04T13:46:11.229Z,958.02
2019-01-04T13:48:37.510Z,958.05
2019-01-04T13:51:03.791Z,957.98
2019-01-04T13:53:30.115Z,957.96
2019-01-04T13:55:56.413Z,958.03
2019-01-04T13:58:22.707Z,958.07
2019-01-04T14:00:49.037Z,958.02
2019-01-04T14:03:15.349Z,958.03
2019-01-04T14:05:41.663Z,958.09
2019-01-04T14:08:07.954Z,958.04
2019-01-04T14:10:34.254Z,958.13
2019-01-04T14:13:00.555Z,958.12
2019-01-04T14:15:26.838Z,958.13
2019-01-04T14:17:53.153Z,958.18
2019-01-04T14:20:19.436Z,958.20
2019-01-04T14:22:45.738Z,958.12
2019-01-04T14:25:12.048Z,958.08
2019-01-04T14:27:38.338Z,958.06
2019-01-04T14:30:11.310Z,958.08
2019-01-04T14:32:37.605Z,958.07
2019-01-04T14:35:03.882Z,958.15
2019-01-04T14:37:30.192Z,958.15
2019-01-04T14:39:56.479Z,958.11
2019-01-04T14:42:22.771Z,958.19
2019-01-04T14:44:49.055Z,958.17
2019-01-04T14:47:15.384Z,958.17
2019-01-04T14:49:41.682Z,958.23
2019-01-04T14:52:07.998Z,958.22
2019-01-04T14:54:34.282Z,958.17
2019-01-04T14:57:00.574Z,958.19
2019-01-04T14:59:26.863Z,958.18
2019-01-04T15:01:53.158Z,958.24
2019-01-04T15:04:19.453Z,958.22
2019-01-04T15:06:45.742Z,958.25
2019-01-04T15:09:12.071Z,958.26
2019-01-04T15:11:38.407Z,958.22
2019-01-04T15:14:04.647Z,958.31
2019-01-04T15:16:30.944Z,958.27
2019-01-04T15:18:57.246Z,958.37
2019-01-04T15:21:23.551Z,958.28
2019-01-04T15:23:49.826Z,958.24
2019-01-04T15:26:16.114Z,958.30
2019-01-04T15:28:42.393Z,958.34
2019-01-04T15:31:08.718Z,958.35
2019-01-04T15:33:35.000Z,958.32
2019-01-04T15:36:01.322Z,958.33
2019-01-04T15:38:27.617Z,958.33
2019-01-04T15:40:53.922Z,958.30
2019-01-04T15:43:20.201Z,958.35
2019-01-04T15:45:46.493Z,958.30
2019-01-04T15:48:12.776Z,958.32
2019-01-04T15:50:39.089Z,958.30
2019-01-04T15:53:05.382Z,958.32
2019-01-04T15:55:31.680Z,958.30
2019-01-04T15:57:57.986Z,958.40
2019-01-04T16:00:24.293Z,958.41
2019-01-04T16:02:50.619Z,958.53
2019-01-04T16:05:16.945Z,958.48
2019-01-04T16:07:43.250Z,958.51
2019-01-04T16:10:09.530Z,958.58
2019-01-04T16:12:35.819Z,958.56
2019-01-04T16:15:02.110Z,958.55
2019-01-04T16:17:28.395Z,958.47
2019-01-04T16:19:54.697Z,958.55
2019-01-04T16:22:20.997Z,958.54
2019-01-04T16:24:47.316Z,958.56
2019-01-04T16:27:13.595Z,958.58
2019-01-04T16:29:39.995Z,958.63
2019-01-04T16:32:06.254Z,958.53
2019-01-04T16:34:32.547Z,958.52
2019-01-04T16:36:58.819Z,958.56
2019-01-04T16:39:25.156Z,958.55
2019-01-04T16:41:51.422Z,958.48
2019-01-04T16:44:17.720Z,958.45
2019-01-04T16:46:44.026Z,958.49
2019-01-04T16:49:10.379Z,958.52
2019-01-04T16:51:36.702Z,958.52
2019-01-04T16:54:03.012Z,958.50
2019-01-04T16:56:29.289Z,958.52
2019-01-04T16:58:55.596Z,958.48
2019-01-04T17:01:21.923Z,958.54
2019-01-04T17:03:48.213Z,958.50
2019-01-04T17:06:14.536Z,958.49
2019-01-04T17:08:40.819Z,958.49
2019-01-04T17:11:07.110Z,958.52
2019-01-04T17:13:33.390Z,958.54
2019-01-04T17:15:59.700Z,958.51
2019-01-04T17:18:26.005Z,958.52
2019-01-04T17:20:52.294Z,958.53
2019-01-04T17:23:18.587Z,958.46
2019-01-04T17:25:44.884Z,958.43
2019-01-04T17:28:11.230Z,958.42
2019-01-04T17:30:37.505Z,958.46
2019-01-04T17:33:03.841Z,958.44
2019-01-04T17:35:30.123Z,958.37
2019-01-04T17:37:56.398Z,958.40
2019-01-04T17:40:22.915Z,958.40
2019-01-04T17:42:49.231Z,958.47
2019-01-04T17:45:15.523Z,958.44
2019-01-04T17:47:41.868Z,958.49
2019-01-04T17:50:08.269Z,958.50
2019-01-04T17:52:34.594Z,958.49
2019-01-04T17:55:00.879Z,958.45
2019-01-04T17:57:27.147Z,958.53
2019-01-04T17:59:53.498Z,958.41
2019-01-04T18:02:19.795Z,958.45
2019-01-04T18:04:46.088Z,958.46
2019-01-04T18:07:12.402Z,958.46
2019-01-04T18:09:38.703Z,958.47
2019-01-04T18:12:05.028Z,958.49
2019-01-04T18:14:31.323Z,958.49
2019-01-04T18:16:57.632Z,958.54
2019-01-04T18:19:23.917Z,958.51
2019-01-04T18:21:50.206Z,958.63
2019-01-04T18:24:16.483Z,958.65
2019-01-04T18:26:42.754Z,958.67
2019-01-04T18:29:09.071Z,958.76
2019-01-04T18:31:35.361Z,958.66
2019-01-04T18:34:01.641Z,958.74
2019-01-04T18:36:27.969Z,958.77
2019-01-04T18:38:54.275Z,958.87
2019-01-04T18:41:20.580Z,958.85
2019-01-04T18:43:46.862Z,958.69
2019-01-04T18:46:13.155Z,958.68
2019-01-04T18:48:39.645Z,958.67
2019-01-04T18:51:05.917Z,958.74
2019-01-04T18:53:32.232Z,958.78
2019-01-04T18:55:58.503Z,958.77
2019-01-04T18:58:25.056Z,958.74
2019-01-04T19:00:51.344Z,958.76
2019-01-04T19:03:19.567Z,958.74
2019-01-04T19:05:45.893Z,958.82
2019-01-04T19:08:12.186Z,958.92
2019-01-04T19:10:38.480Z,958.91
2019-01-04T19:13:04.761Z,958.88
2019-01-04T19:15:31.243Z,958.98
2019-01-04T19:17:57.526Z,958.92
2019-01-04T19:20:23.860Z,958.96
2019-01-04T19:22:50.170Z,958.88
2019-01-04T19:25:16.557Z,958.84
2019-01-04T19:27:42.832Z,958.88
2019-01-04T19:30:09.278Z,958.90
2019-01-04T19:32:35.653Z,958.95
2019-01-04T19:35:01.952Z,958.83
2019-01-04T19:37:28.513Z,958.92
2019-01-04T19:39:54.845Z,958.84
2019-01-04T19:42:21.184Z,958.87
2019-01-04T19:44:47.475Z,958.92
2019-01-04T19:47:16.641Z,958.87
2019-01-04T19:49:42.963Z,958.88
2019-01-04T19:52:09.249Z,958.92
2019-01-04T19:54:35.547Z,958.83
2019-01-04T19:57:01.846Z,958.86
2019-01-04T19:59:28.132Z,958.89
2019-01-04T20:01:55.430Z,958.95
2019-01-04T20:04:21.709Z,958.86
2019-01-04T20:06:48.014Z,958.87
2019-01-04T20:09:14.357Z,958.84
2019-01-04T20:11:40.661Z,958.81
2019-01-04T20:14:06.974Z,958.79
2019-01-04T20:16:33.265Z,958.76
2019-01-04T20:18:59.690Z,958.71
2019-01-04T20:21:25.963Z,958.76
2019-01-04T20:23:52.257Z,958.78
2019-01-04T20:26:18.540Z,958.82
2019-01-04T20:28:44.809Z,958.79
2019-01-04T20:31:11.100Z,958.75
2019-01-04T20:33:37.391Z,958.79
2019-01-04T20:36:03.735Z,958.76
2019-01-04T20:38:30.041Z,958.72
2019-01-04T20:40:56.321Z,958.70
2019-01-04T20:43:22.617Z,958.68
2019-01-04T20:45:48.911Z,958.76
2019-01-04T20:48:15.183Z,958.75
2019-01-04T20:50:41.475Z,958.72
2019-01-04T20:53:07.795Z,958.64
2019-01-04T20:55:34.078Z,958.64
2019-01-04T20:58:00.365Z,958.62
2019-01-04T21:00:26.682Z,958.70
2019-01-04T21:02:53.005Z,958.76
2019-01-04T21:05:19.250Z,958.89
2019-01-04T21:07:45.567Z,958.85
2019-01-04T21:10:13.025Z,958.77
2019-01-04T21:12:38.144Z,958.80
2019-01-04T21:15:04.434Z,958.85
2019-01-04T21:17:30.731Z,958.81
2019-01-04T21:19:57.091Z,958.76
2019-01-04T21:22:23.367Z,958.81
2019-01-04T21:24:49.666Z,958.78
2019-01-04T21:27:15.996Z,958.75
2019-01-04T21:29:42.268Z,958.78
2019-01-04T21:32:08.576Z,958.80
2019-01-04T21:34:34.867Z,958.75
2019-01-04T21:37:01.135Z,958.79
2019-01-04T21:39:27.446Z,958.69
2019-01-04T21:41:53.758Z,958.69
2019-01-04T21:44:20.079Z,958.68
2019-01-04T21:46:46.383Z,958.68
2019-01-04T21:49:12.674Z,958.59
2019-01-04T21:51:39.104Z,958.51
2019-01-04T21:54:05.269Z,958.55
2019-01-04T21:56:31.595Z,958.49
2019-01-04T21:58:57.877Z,958.36
2019-01-04T22:01:24.152Z,958.35
2019-01-04T22:03:50.483Z,958.33
2019-01-04T22:06:16.753Z,958.25
2019-01-04T22:08:43.063Z,958.18
2019-01-04T22:11:09.346Z,958.26
2019-01-04T22:13:35.663Z,958.22
2019-01-04T22:16:01.967Z,958.17
2019-01-04T22:18:28.242Z,958.19
2019-01-04T22:20:54.592Z,958.16
2019-01-04T22:23:20.837Z,958.18
2019-01-04T22:25:47.150Z,958.15
2019-01-04T22:28:13.423Z,958.12
2019-01-04T22:30:39.772Z,958.05
2019-01-04T22:33:06.055Z,958.07
2019-01-04T22:35:32.366Z,957.96
2019-01-04T22:37:58.640Z,957.89
2019-01-04T22:40:24.937Z,958.04
2019-01-04T22:42:51.254Z,957.96
2019-01-04T22:45:17.508Z,957.88
2019-01-04T22:47:43.855Z,957.77
2019-01-04T22:50:10.161Z,957.89
2019-01-04T22:52:36.444Z,957.88
2019-01-04T22:55:02.734Z,957.91
2019-01-04T22:57:29.024Z,957.88
2019-01-04T22:59:55.318Z,957.91
2019-01-04T23:02:21.618Z,957.95
2019-01-04T23:04:47.916Z,957.90
2019-01-04T23:07:14.217Z,957.93
2019-01-04T23:09:40.496Z,957.98
2019-01-04T23:12:06.785Z,957.98
2019-01-04T23:14:33.079Z,957.93
2019-01-04T23:16:59.371Z,957.92
2019-01-04T23:19:25.669Z,957.94
2019-01-04T23:21:53.255Z,957.95
2019-01-04T23:24:18.312Z,958.00
2019-01-04T23:26:44.634Z,958.04
2019-01-04T23:29:10.930Z,957.98
2019-01-04T23:31:37.204Z,957.96
2019-01-04T23:34:03.510Z,958.00
2019-01-04T23:36:29.844Z,957.97
2019-01-04T23:38:56.121Z,957.93
2019-01-04T23:41:22.409Z,957.78
2019-01-04T23:43:48.694Z,957.71
2019-01-04T23:46:14.984Z,957.73
2019-01-04T23:48:41.514Z,957.70
2019-01-04T23:51:07.825Z,957.65
2019-01-04T23:53:34.102Z,957.61
2019-01-04T23:56:00.380Z,957.57
2019-01-04T23:58:26.683Z,957.58
